Time;durP1;ratioP1;P1;durP2;ratioP2;P2;SDS_P1;SDS_P2;PMS_P1;PMS_P2;Temp;Humidity;BMP_temperature;BMP_pressure;BME280_temperature;BME280_humidity;BME280_pressure;Samples;Min_cycle;Max_cycle;Signal;HPM_P1;HPM_P2
2023/05/08 00:01:57;;;;;;;196.48;92.72;;;;;;;13.62;100.00;102091.22;5068778;28;20105;-45
2023/05/08 00:04:23;;;;;;;196.40;92.40;;;;;;;13.58;100.00;102071.75;5066024;28;20051;-44
2023/05/08 00:06:50;;;;;;;192.05;89.18;;;;;;;13.55;100.00;102079.38;5067293;28;20056;-46
2023/05/08 00:09:15;;;;;;;175.48;85.65;;;;;;;13.54;100.00;102086.66;5065207;28;20032;-45
2023/05/08 00:11:41;;;;;;;183.85;88.53;;;;;;;13.53;100.00;102082.28;5032464;28;20120;-45
2023/05/08 00:14:06;;;;;;;194.23;89.28;;;;;;;13.48;100.00;102079.22;5052931;28;20183;-48
2023/05/08 00:16:32;;;;;;;202.80;90.97;;;;;;;13.49;100.00;102088.19;5061801;28;20534;-47
2023/05/08 00:18:58;;;;;;;201.73;92.82;;;;;;;13.46;100.00;102077.72;5069891;28;20039;-45
2023/05/08 00:21:23;;;;;;;200.38;92.22;;;;;;;13.44;100.00;102077.03;5071292;28;20506;-46
2023/05/08 00:23:49;;;;;;;194.98;91.50;;;;;;;13.45;100.00;102081.41;5066178;28;20032;-46
2023/05/08 00:26:14;;;;;;;188.18;87.25;;;;;;;13.42;100.00;102081.75;5069402;28;20036;-44
2023/05/08 00:28:40;;;;;;;189.88;88.25;;;;;;;13.39;100.00;102074.84;5055974;28;20478;-46
2023/05/08 00:31:06;;;;;;;189.10;89.68;;;;;;;13.32;100.00;102074.69;5073707;28;20052;-44
2023/05/08 00:33:32;;;;;;;186.85;88.63;;;;;;;13.31;100.00;102081.09;5061141;28;20557;-44
2023/05/08 00:36:01;;;;;;;195.43;89.20;;;;;;;13.29;100.00;102079.56;5053993;28;20056;-46
2023/05/08 00:38:29;;;;;;;201.63;92.68;;;;;;;13.26;100.00;102090.69;5035896;28;20025;-48
2023/05/08 00:40:55;;;;;;;189.65;87.38;;;;;;;13.24;100.00;102090.84;5053580;28;20505;-45
2023/05/08 00:43:24;;;;;;;191.70;89.32;;;;;;;13.21;100.00;102090.34;5052646;28;20112;-45
2023/05/08 00:45:50;;;;;;;189.68;87.95;;;;;;;13.22;100.00;102087.50;5055445;28;20029;-46
2023/05/08 00:48:16;;;;;;;182.15;87.15;;;;;;;13.21;100.00;102088.50;5052332;28;20655;-45
2023/05/08 00:50:41;;;;;;;190.27;86.72;;;;;;;13.20;100.00;102086.81;5056339;28;20064;-46
2023/05/08 00:53:06;;;;;;;188.20;84.78;;;;;;;13.15;100.00;102083.75;5053793;28;20055;-48
2023/05/08 00:55:32;;;;;;;181.82;83.07;;;;;;;13.10;100.00;102084.25;5052295;28;20036;-45
2023/05/08 00:57:58;;;;;;;192.63;84.53;;;;;;;13.09;100.00;102084.44;5053586;28;20052;-47
2023/05/08 01:00:26;;;;;;;184.43;81.82;;;;;;;13.11;100.00;102077.00;5052140;28;20082;-45
2023/05/08 01:02:53;;;;;;;196.07;85.47;;;;;;;13.04;100.00;102089.50;5059988;28;20074;-47
2023/05/08 01:05:18;;;;;;;183.88;82.93;;;;;;;12.98;100.00;102087.47;5047447;28;20059;-46
2023/05/08 01:07:45;;;;;;;176.43;83.93;;;;;;;12.94;100.00;102087.78;5063103;28;20102;-47
2023/05/08 01:10:10;;;;;;;183.05;81.80;;;;;;;12.91;100.00;102090.84;5072501;28;20036;-44
2023/05/08 01:12:45;;;;;;;187.60;80.72;;;;;;;12.87;100.00;102089.47;5072195;28;20401;-44
2023/05/08 01:15:18;;;;;;;187.90;79.93;;;;;;;12.83;100.00;102081.88;5053566;28;20039;-46
2023/05/08 01:17:49;;;;;;;186.88;81.45;;;;;;;12.81;100.00;102087.44;5034889;28;20479;-44
2023/05/08 01:20:31;;;;;;;183.65;81.82;;;;;;;12.80;100.00;102083.06;5054937;28;20471;-47
2023/05/08 01:23:05;;;;;;;189.43;82.88;;;;;;;12.75;100.00;102093.53;5053306;28;20041;-43
2023/05/08 01:25:47;;;;;;;182.10;77.60;;;;;;;12.77;100.00;102096.03;5053454;28;20036;-44
2023/05/08 01:28:35;;;;;;;190.30;80.32;;;;;;;12.69;100.00;102088.75;5047822;28;20044;-46
2023/05/08 01:31:40;;;;;;;188.55;78.80;;;;;;;12.64;100.00;102093.84;5071090;28;20259;-44
2023/05/08 01:34:10;;;;;;;199.90;82.40;;;;;;;12.63;100.00;102100.22;5071571;28;20386;-50
2023/05/08 01:36:41;;;;;;;204.32;84.13;;;;;;;12.60;100.00;102097.88;5066283;28;20135;-44
2023/05/08 01:39:17;;;;;;;194.52;81.53;;;;;;;12.59;100.00;102098.88;5057759;28;20067;-46
2023/05/08 01:42:23;;;;;;;195.90;83.65;;;;;;;12.58;100.00;102102.56;5053597;28;20491;-45
2023/05/08 01:44:55;;;;;;;203.10;82.03;;;;;;;12.56;100.00;102105.47;5040742;28;20044;-46
2023/05/08 01:47:23;;;;;;;184.82;80.50;;;;;;;12.54;100.00;102101.22;5055053;28;20092;-47
2023/05/08 01:49:57;;;;;;;205.35;83.80;;;;;;;12.55;100.00;102113.72;5071772;28;20529;-47
2023/05/08 01:52:28;;;;;;;192.77;80.40;;;;;;;12.55;100.00;102114.56;5056454;28;20029;-45
2023/05/08 01:54:56;;;;;;;199.75;81.18;;;;;;;12.54;100.00;102112.03;5057159;28;20107;-47
2023/05/08 01:57:23;;;;;;;202.07;82.05;;;;;;;12.53;100.00;102111.16;5049137;28;20099;-46
2023/05/08 01:59:50;;;;;;;202.02;77.60;;;;;;;12.56;100.00;102115.38;5056865;28;20083;-44
2023/05/08 02:02:16;;;;;;;206.63;80.93;;;;;;;12.48;100.00;102111.69;5070374;28;20044;-43
2023/05/08 02:04:43;;;;;;;207.93;79.20;;;;;;;12.48;100.00;102114.38;5067209;28;20059;-45
2023/05/08 02:07:08;;;;;;;221.93;83.10;;;;;;;12.47;100.00;102123.47;5051712;28;20032;-46
2023/05/08 02:09:34;;;;;;;232.25;86.30;;;;;;;12.45;100.00;102121.94;5065595;28;20082;-44
2023/05/08 02:12:00;;;;;;;213.32;82.82;;;;;;;12.44;100.00;102123.81;5072326;28;20037;-45
2023/05/08 02:14:25;;;;;;;245.15;85.40;;;;;;;12.46;100.00;102118.25;5071565;28;20032;-46
2023/05/08 02:16:53;;;;;;;255.18;86.63;;;;;;;12.48;100.00;102125.19;5071232;28;20033;-46
2023/05/08 02:19:21;;;;;;;260.20;87.93;;;;;;;12.52;100.00;102121.13;5071507;28;20017;-44
2023/05/08 02:21:47;;;;;;;264.75;85.95;;;;;;;12.57;100.00;102120.66;5069631;28;20029;-48
2023/05/08 02:24:13;;;;;;;293.65;89.63;;;;;;;12.60;100.00;102127.56;5051732;28;20483;-48
2023/05/08 02:26:40;;;;;;;279.13;86.25;;;;;;;12.63;100.00;102124.53;5069414;28;20028;-44
2023/05/08 02:29:06;;;;;;;299.80;88.43;;;;;;;12.64;100.00;102126.25;5050287;28;20466;-44
2023/05/08 02:31:32;;;;;;;298.15;86.90;;;;;;;12.64;100.00;102123.56;5072107;28;20040;-47
2023/05/08 02:33:58;;;;;;;301.35;86.85;;;;;;;12.61;100.00;102123.84;5050695;28;20029;-46
2023/05/08 02:36:24;;;;;;;331.25;87.90;;;;;;;12.62;100.00;102126.41;5066014;28;20561;-45
2023/05/08 02:38:51;;;;;;;323.40;88.97;;;;;;;12.63;100.00;102132.63;5063693;28;20051;-45
2023/05/08 02:41:21;;;;;;;289.02;82.82;;;;;;;12.67;100.00;102123.22;5050943;28;20116;-47
2023/05/08 02:43:47;;;;;;;297.30;83.22;;;;;;;12.73;100.00;102127.94;5054359;28;20024;-46
2023/05/08 02:46:24;;;;;;;295.83;83.38;;;;;;;12.75;100.00;102128.63;5060530;28;20398;-46
2023/05/08 02:49:20;;;;;;;297.03;80.17;;;;;;;12.73;100.00;102123.38;5059453;28;20041;-45
2023/05/08 02:52:04;;;;;;;284.98;74.80;;;;;;;12.75;100.00;102120.53;5050312;28;20489;-43
2023/05/08 02:54:50;;;;;;;283.58;69.18;;;;;;;12.75;100.00;102120.53;5050617;28;20032;-45
2023/05/08 02:57:37;;;;;;;277.65;67.47;;;;;;;12.73;100.00;102117.97;5052992;28;20053;-46
2023/05/08 03:00:08;;;;;;;310.63;67.60;;;;;;;12.74;100.00;102122.41;5067992;28;20401;-48
2023/05/08 03:02:33;;;;;;;299.95;69.50;;;;;;;12.72;100.00;102123.56;5064436;28;20275;-44
2023/05/08 03:05:03;;;;;;;313.13;69.18;;;;;;;12.72;100.00;102126.28;5051663;28;20032;-49
2023/05/08 03:07:29;;;;;;;311.10;72.50;;;;;;;12.72;100.00;102124.41;5049561;28;20017;-45
2023/05/08 03:10:02;;;;;;;353.10;71.00;;;;;;;12.74;100.00;102133.19;5066311;28;20031;-44
2023/05/08 03:12:29;;;;;;;321.15;72.22;;;;;;;12.71;100.00;102133.50;5069930;28;20033;-44
2023/05/08 03:15:27;;;;;;;;;;;;;;;12.72;100.00;102128.97;5066279;28;20044;-45
2023/05/08 03:17:57;;;;;;;299.90;67.32;;;;;;;12.73;100.00;102130.66;5059431;28;19939;-44
2023/05/08 03:20:25;;;;;;;315.33;70.57;;;;;;;12.73;100.00;102133.34;5048676;28;20405;-46
2023/05/08 03:22:52;;;;;;;314.52;70.93;;;;;;;12.75;100.00;102136.75;5032323;28;20032;-46
2023/05/08 03:25:18;;;;;;;303.63;72.22;;;;;;;12.72;100.00;102131.66;5047625;28;20057;-43
2023/05/08 03:27:44;;;;;;;315.85;68.00;;;;;;;12.72;100.00;102129.81;5047544;28;20064;-47
2023/05/08 03:30:10;;;;;;;298.30;66.53;;;;;;;12.71;100.00;102124.56;5056125;28;20224;-49
2023/05/08 03:32:36;;;;;;;295.33;64.47;;;;;;;12.68;100.00;102122.19;5059515;28;20028;-45
2023/05/08 03:35:02;;;;;;;284.48;61.92;;;;;;;12.64;100.00;102126.25;5047797;28;20153;-44
2023/05/08 03:37:28;;;;;;;307.48;66.97;;;;;;;12.64;100.00;102118.16;5030822;28;20017;-44
2023/05/08 03:39:54;;;;;;;293.83;63.25;;;;;;;12.64;100.00;102118.16;5030854;28;20120;-43
2023/05/08 03:42:22;;;;;;;313.35;63.58;;;;;;;12.64;100.00;102118.16;5049200;28;20029;-46
2023/05/08 03:44:51;;;;;;;297.10;64.68;;;;;;;12.59;100.00;102112.38;5059453;28;20025;-44
2023/05/08 03:47:20;;;;;;;306.05;66.35;;;;;;;12.55;100.00;102111.00;5047253;28;20039;-46
2023/05/08 03:49:47;;;;;;;311.00;64.90;;;;;;;12.49;100.00;102105.25;5045418;28;20040;-45
2023/05/08 03:52:13;;;;;;;291.77;65.70;;;;;;;12.48;100.00;102102.72;5048418;28;20036;-46
2023/05/08 03:54:38;;;;;;;298.58;63.10;;;;;;;12.46;100.00;102100.19;5047147;28;20649;-47
2023/05/08 03:57:04;;;;;;;291.08;64.75;;;;;;;12.39;100.00;102104.53;5046724;28;20143;-45
2023/05/08 03:59:45;;;;;;;296.10;64.15;;;;;;;12.37;100.00;102114.66;5055977;28;20036;-46
2023/05/08 04:02:10;;;;;;;312.48;64.65;;;;;;;12.32;100.00;102117.00;5057862;28;20044;-45
2023/05/08 04:04:40;;;;;;;292.48;60.63;;;;;;;12.32;100.00;102116.16;5048228;28;20033;-44
2023/05/08 04:07:24;;;;;;;306.27;64.60;;;;;;;12.38;100.00;102113.66;5057767;28;20042;-45
2023/05/08 04:10:09;;;;;;;307.05;65.63;;;;;;;12.38;100.00;102116.38;5064485;28;20088;-45
2023/05/08 04:12:44;;;;;;;300.13;62.20;;;;;;;12.41;100.00;102116.03;5052479;28;20446;-48
2023/05/08 04:15:21;;;;;;;307.55;65.50;;;;;;;12.51;100.00;102124.84;5051723;28;20029;-45
2023/05/08 04:17:53;;;;;;;298.05;62.63;;;;;;;12.55;100.00;102124.50;5067012;28;20071;-47
2023/05/08 04:20:19;;;;;;;279.40;64.88;;;;;;;12.60;100.00;102122.16;5059827;28;20029;-46
2023/05/08 04:22:47;;;;;;;291.65;64.78;;;;;;;12.65;100.00;102131.47;5031154;28;20040;-47
2023/05/08 04:25:14;;;;;;;301.83;63.85;;;;;;;12.68;100.00;102133.84;5045445;28;20029;-45
2023/05/08 04:27:40;;;;;;;274.33;65.03;;;;;;;12.72;100.00;102128.97;5047857;28;20086;-44
2023/05/08 04:30:07;;;;;;;283.00;65.88;;;;;;;12.76;100.00;102127.63;5051017;28;20081;-47
2023/05/08 04:32:33;;;;;;;273.70;62.72;;;;;;;12.79;100.00;102126.44;5051095;28;20502;-47
2023/05/08 04:34:59;;;;;;;250.18;61.85;;;;;;;12.90;100.00;102126.13;5048522;28;20071;-45
2023/05/08 04:37:26;;;;;;;214.10;55.00;;;;;;;12.92;100.00;102127.66;5052513;28;20052;-49
2023/05/08 04:39:52;;;;;;;125.03;40.55;;;;;;;12.95;100.00;102121.94;5057395;28;20448;-45
2023/05/08 04:42:17;;;;;;;122.32;41.35;;;;;;;13.03;100.00;102122.94;5049211;28;20057;-50
2023/05/08 04:44:43;;;;;;;113.63;38.53;;;;;;;13.09;100.00;102125.00;5050945;28;20043;-45
2023/05/08 04:47:08;;;;;;;119.25;39.80;;;;;;;13.13;100.00;102121.75;5063751;28;20033;-45
2023/05/08 04:49:33;;;;;;;122.05;39.33;;;;;;;13.18;100.00;102132.91;5063560;28;20440;-46
2023/05/08 04:52:00;;;;;;;123.80;41.95;;;;;;;13.22;100.00;102143.41;5048201;28;20040;-43
2023/05/08 04:54:26;;;;;;;118.97;41.05;;;;;;;13.27;100.00;102143.78;5031635;28;20422;-50
2023/05/08 04:56:51;;;;;;;123.65;41.67;;;;;;;13.30;100.00;102148.88;5054808;28;20052;-45
2023/05/08 04:59:17;;;;;;;127.05;42.50;;;;;;;13.32;100.00;102144.13;5051314;28;20035;-44
2023/05/08 05:01:45;;;;;;;122.80;42.53;;;;;;;13.42;100.00;102138.56;5060582;28;20356;-47
2023/05/08 05:04:10;;;;;;;;;;;;;;;13.43;100.00;102141.09;5052567;28;20056;-47
2023/05/08 05:06:36;;;;;;;117.28;43.78;;;;;;;13.47;100.00;102142.44;5054125;28;20359;-46
2023/05/08 05:09:01;;;;;;;138.65;45.05;;;;;;;13.49;100.00;102147.69;5064450;28;20044;-44
2023/05/08 05:11:26;;;;;;;121.78;41.97;;;;;;;13.53;100.00;102149.88;5055785;28;20049;-46
2023/05/08 05:13:52;;;;;;;118.53;43.03;;;;;;;13.55;100.00;102147.00;5066654;28;20036;-47
2023/05/08 05:16:17;;;;;;;124.45;42.53;;;;;;;13.55;100.00;102149.69;5061989;28;20052;-45
2023/05/08 05:18:43;;;;;;;124.18;44.97;;;;;;;13.57;100.00;102155.78;5058774;28;20111;-47
2023/05/08 05:21:08;;;;;;;128.07;44.38;;;;;;;13.58;100.00;102155.59;5062385;28;20471;-46
2023/05/08 05:23:33;;;;;;;143.82;47.88;;;;;;;13.62;100.00;102164.25;5057193;28;20360;-47
2023/05/08 05:26:02;;;;;;;181.25;58.20;;;;;;;13.65;100.00;102166.59;5057584;28;20112;-46
2023/05/08 05:28:27;;;;;;;194.00;67.70;;;;;;;13.64;100.00;102159.53;5054961;28;20108;-48
2023/05/08 05:30:52;;;;;;;184.60;63.97;;;;;;;13.65;100.00;102160.34;5048883;28;20085;-47
2023/05/08 05:33:18;;;;;;;207.98;66.55;;;;;;;13.65;100.00;102166.59;5059275;28;20390;-49
2023/05/08 05:35:43;;;;;;;218.00;65.55;;;;;;;13.62;100.00;102161.53;5063998;28;20039;-48
2023/05/08 05:38:09;;;;;;;212.95;63.08;;;;;;;13.59;100.00;102170.00;5064037;28;20406;-46
2023/05/08 05:40:35;;;;;;;206.07;62.17;;;;;;;13.61;100.00;102165.25;5066309;28;20179;-47
2023/05/08 05:43:01;;;;;;;181.88;54.55;;;;;;;13.60;100.00;102171.69;5063873;28;20419;-47
2023/05/08 05:45:26;;;;;;;184.45;54.08;;;;;;;13.56;100.00;102170.31;5059400;28;20029;-47
2023/05/08 05:47:52;;;;;;;182.38;53.10;;;;;;;13.54;100.00;102172.38;5058217;28;20472;-48
2023/05/08 05:50:18;;;;;;;175.82;49.67;;;;;;;13.57;100.00;102180.13;5072012;28;20120;-45
2023/05/08 05:52:44;;;;;;;162.98;48.05;;;;;;;13.51;100.00;102178.97;5070411;28;20408;-44
2023/05/08 05:55:09;;;;;;;159.55;47.30;;;;;;;13.49;100.00;102180.13;5053000;28;20077;-46
2023/05/08 05:57:35;;;;;;;167.70;48.38;;;;;;;13.53;100.00;102176.94;5057037;28;20053;-49
2023/05/08 06:00:01;;;;;;;157.68;45.17;;;;;;;13.60;100.00;102179.78;5055098;28;20185;-44
2023/05/08 06:02:27;;;;;;;145.68;43.20;;;;;;;13.64;100.00;102183.00;5060200;28;20108;-45
2023/05/08 06:04:52;;;;;;;134.93;41.85;;;;;;;13.63;100.00;102184.84;5043657;28;20117;-45
2023/05/08 06:07:19;;;;;;;152.70;41.72;;;;;;;13.64;100.00;102181.16;5054533;28;20395;-46
2023/05/08 06:09:45;;;;;;;146.03;43.47;;;;;;;13.70;100.00;102185.03;5034561;28;20017;-43
2023/05/08 06:12:11;;;;;;;144.90;44.70;;;;;;;13.63;100.00;102176.75;5070441;28;20286;-48
2023/05/08 06:14:36;;;;;;;149.10;45.42;;;;;;;13.64;100.00;102174.88;5042140;28;20434;-45
2023/05/08 06:17:01;;;;;;;147.32;44.22;;;;;;;13.71;100.00;102176.75;5057307;28;20033;-45
2023/05/08 06:19:27;;;;;;;138.63;43.63;;;;;;;13.65;100.00;102172.03;5069911;28;20028;-47
2023/05/08 06:21:53;;;;;;;145.10;43.95;;;;;;;13.67;100.00;102180.81;5054757;28;20037;-46
2023/05/08 06:24:18;;;;;;;143.93;43.53;;;;;;;13.71;100.00;102184.84;5063696;28;20032;-46
2023/05/08 06:26:44;;;;;;;123.32;38.20;;;;;;;13.51;100.00;102176.25;5071364;28;20378;-46
2023/05/08 06:29:09;;;;;;;143.93;41.88;;;;;;;13.49;100.00;102177.44;5063548;28;20616;-48
2023/05/08 06:31:34;;;;;;;146.75;41.40;;;;;;;13.45;100.00;102176.91;5058875;28;20036;-47
2023/05/08 06:34:00;;;;;;;144.25;40.35;;;;;;;13.47;100.00;102180.28;5063772;28;20098;-46
2023/05/08 06:36:26;;;;;;;133.93;40.97;;;;;;;13.56;100.00;102176.59;5066603;28;20016;-46
2023/05/08 06:38:51;;;;;;;124.00;33.97;;;;;;;13.66;100.00;102173.69;5067638;28;20382;-44
2023/05/08 06:41:16;;;;;;;118.55;35.15;;;;;;;13.58;100.00;102171.00;5071355;28;20032;-45
2023/05/08 06:43:42;;;;;;;133.07;39.65;;;;;;;13.53;100.00;102173.38;5070287;28;20031;-46
2023/05/08 06:46:07;;;;;;;130.45;39.15;;;;;;;13.50;100.00;102174.53;5071942;28;20474;-49
2023/05/08 06:48:33;;;;;;;118.88;36.67;;;;;;;13.55;100.00;102174.03;5065381;28;20489;-47
2023/05/08 06:50:58;;;;;;;138.38;39.15;;;;;;;13.55;100.00;102171.34;5066030;28;20032;-45
2023/05/08 06:53:24;;;;;;;128.65;38.33;;;;;;;13.57;100.00;102180.13;5071963;28;20486;-44
2023/05/08 06:55:50;;;;;;;145.27;41.17;;;;;;;13.54;100.00;102172.38;5071139;28;20104;-48
2023/05/08 06:58:15;;;;;;;138.15;43.40;;;;;;;13.65;100.00;102172.03;5062547;28;20105;-47
2023/05/08 07:00:42;;;;;;;145.48;41.65;;;;;;;13.80;100.00;102174.91;5071156;28;20364;-47
2023/05/08 07:03:07;;;;;;;137.82;41.78;;;;;;;13.99;100.00;102169.09;5069404;28;20035;-46
2023/05/08 07:05:32;;;;;;;118.30;37.20;;;;;;;13.87;100.00;102164.22;5072223;28;20024;-44
2023/05/08 07:07:58;;;;;;;113.10;32.28;;;;;;;13.75;100.00;102150.22;5052836;28;20021;-46
2023/05/08 07:10:23;;;;;;;118.28;34.88;;;;;;;13.73;100.00;102158.47;5058977;28;20119;-48
2023/05/08 07:12:49;;;;;;;120.35;35.55;;;;;;;13.62;100.00;102153.44;5071642;28;20093;-46
2023/05/08 07:15:15;;;;;;;121.95;34.58;;;;;;;13.64;100.00;102154.09;5070313;28;20035;-44
2023/05/08 07:17:40;;;;;;;117.28;33.10;;;;;;;13.92;100.00;102157.25;5052119;28;20079;-47
2023/05/08 07:20:07;;;;;;;120.50;36.90;;;;;;;13.94;100.00;102155.25;5052148;28;20085;-46
2023/05/08 07:22:33;;;;;;;131.70;38.83;;;;;;;13.97;100.00;102144.06;5055754;28;20024;-47
2023/05/08 07:24:58;;;;;;;147.45;39.55;;;;;;;13.87;100.00;102154.22;5057279;28;20283;-49
2023/05/08 07:27:24;;;;;;;167.45;41.63;;;;;;;14.07;100.00;102162.84;5058454;28;20424;-46
2023/05/08 07:29:51;;;;;;;144.02;41.00;;;;;;;14.14;100.00;102166.53;5069720;28;20028;-44
2023/05/08 07:32:16;;;;;;;120.03;38.37;;;;;;;14.20;100.00;102160.44;5053074;28;20455;-45
2023/05/08 07:34:42;;;;;;;106.28;36.08;;;;;;;14.34;100.00;102158.84;5068243;28;20050;-44
2023/05/08 07:37:07;;;;;;;111.60;36.97;;;;;;;14.49;100.00;102159.81;5063362;28;20439;-46
2023/05/08 07:39:33;;;;;;;98.28;34.47;;;;;;;14.88;100.00;102158.16;5054459;28;20039;-48
2023/05/08 07:41:58;;;;;;;91.93;35.17;;;;;;;14.98;100.00;102147.94;5064247;28;20025;-46
2023/05/08 07:44:24;;;;;;;101.68;34.40;;;;;;;14.67;100.00;102140.63;5060255;28;20035;-46
2023/05/08 07:46:49;;;;;;;107.38;38.35;;;;;;;14.63;100.00;102150.13;5060619;28;20086;-45
2023/05/08 07:49:15;;;;;;;115.35;37.88;;;;;;;14.77;100.00;102156.69;5050202;28;20032;-43
2023/05/08 07:51:41;;;;;;;113.53;37.90;;;;;;;14.82;100.00;102148.00;5032865;28;20037;-45
2023/05/08 07:54:07;;;;;;;125.97;38.08;;;;;;;14.80;100.00;102136.50;5050353;28;20028;-44
2023/05/08 07:56:32;;;;;;;113.13;39.05;;;;;;;14.70;100.00;102151.13;5048790;28;20029;-47
2023/05/08 07:58:58;;;;;;;120.90;41.50;;;;;;;14.75;100.00;102149.75;5034236;28;20059;-45
2023/05/08 08:01:23;;;;;;;118.80;43.78;;;;;;;14.63;100.00;102146.56;5069075;28;20095;-48
2023/05/08 08:03:48;;;;;;;129.13;41.00;;;;;;;14.73;100.00;102149.09;5069923;28;20467;-50
2023/05/08 08:06:14;;;;;;;138.48;47.22;;;;;;;14.85;100.00;102153.06;5069985;28;20085;-45
2023/05/08 08:08:39;;;;;;;139.13;47.22;;;;;;;14.77;100.00;102144.97;5069855;28;20072;-46
2023/05/08 08:11:05;;;;;;;148.20;47.47;;;;;;;14.75;100.00;102150.59;5068511;28;20029;-48
2023/05/08 08:13:34;;;;;;;154.57;48.35;;;;;;;14.85;100.00;102153.94;5070327;28;20056;-43
2023/05/08 08:16:00;;;;;;;163.77;55.22;;;;;;;14.82;100.00;102158.84;5069329;28;20136;-46
2023/05/08 08:18:25;;;;;;;169.07;56.67;;;;;;;14.76;100.00;102162.28;5070624;28;20476;-46
2023/05/08 08:20:51;;;;;;;169.00;57.33;;;;;;;14.95;100.00;102153.69;5070125;28;20024;-46
2023/05/08 08:23:16;;;;;;;184.55;59.08;;;;;;;14.92;100.00;102154.03;5070220;28;20071;-45
2023/05/08 08:25:42;;;;;;;179.13;58.65;;;;;;;15.01;100.00;102152.97;5070513;28;20028;-45
2023/05/08 08:28:07;;;;;;;186.05;58.50;;;;;;;14.97;100.00;102148.09;5070522;28;20029;-48
2023/05/08 08:30:32;;;;;;;200.05;59.70;;;;;;;14.95;100.00;102150.13;5068384;28;20040;-46
2023/05/08 08:33:01;;;;;;;201.82;61.42;;;;;;;15.04;100.00;102155.31;5070214;28;20020;-44
2023/05/08 08:35:29;;;;;;;215.85;64.38;;;;;;;14.99;100.00;102149.59;5067720;28;20016;-47
2023/05/08 08:37:57;;;;;;;218.15;63.92;;;;;;;14.86;100.00;102149.34;5068425;28;20551;-49
2023/05/08 08:40:22;;;;;;;218.68;64.03;;;;;;;15.00;100.00;102151.28;5069349;28;20451;-45
2023/05/08 08:42:47;;;;;;;214.27;63.38;;;;;;;15.57;100.00;102141.88;5069502;28;20032;-47
2023/05/08 08:45:13;;;;;;;218.57;64.57;;;;;;;15.62;100.00;102139.44;5072236;28;20048;-48
2023/05/08 08:47:41;;;;;;;204.50;61.55;;;;;;;15.54;100.00;102132.22;5072242;28;20514;-46
2023/05/08 08:50:09;;;;;;;214.15;64.72;;;;;;;15.48;100.00;102132.97;5073758;28;20366;-46
2023/05/08 08:52:37;;;;;;;222.30;62.38;;;;;;;15.82;100.00;102138.94;5073524;28;20383;-47
2023/05/08 08:55:07;;;;;;;235.15;67.45;;;;;;;15.98;100.00;102126.06;5073590;28;20024;-46
2023/05/08 08:57:33;;;;;;;227.25;66.63;;;;;;;16.14;100.00;102122.31;5072103;28;20067;-46
2023/05/08 09:00:02;;;;;;;215.07;65.45;;;;;;;16.36;100.00;102128.66;5072696;28;20033;-44
2023/05/08 09:02:28;;;;;;;226.63;66.53;;;;;;;16.50;100.00;102132.41;5072721;28;20099;-45
2023/05/08 09:04:54;;;;;;;195.73;61.33;;;;;;;16.42;100.00;102136.06;5073254;28;20123;-45
2023/05/08 09:07:19;;;;;;;185.90;58.42;;;;;;;16.51;100.00;102133.22;5072220;28;20027;-48
2023/05/08 09:09:45;;;;;;;188.75;60.25;;;;;;;16.60;100.00;102129.38;5073615;28;20025;-43
2023/05/08 09:12:14;;;;;;;197.90;59.58;;;;;;;16.42;100.00;102117.03;5073421;28;20020;-49
2023/05/08 09:14:39;;;;;;;166.95;53.47;;;;;;;16.78;100.00;102118.97;5066968;28;20021;-46
2023/05/08 09:17:05;;;;;;;162.40;54.92;;;;;;;17.00;100.00;102111.66;5059110;28;20421;-45
2023/05/08 09:19:30;;;;;;;151.88;53.78;;;;;;;16.91;100.00;102106.56;5070103;28;20044;-45
2023/05/08 09:21:59;;;;;;;154.07;55.42;;;;;;;17.16;100.00;102109.72;5062447;28;20025;-47
2023/05/08 09:24:26;;;;;;;154.73;55.70;;;;;;;17.13;100.00;102108.25;5073290;28;20394;-44
2023/05/08 09:26:53;;;;;;;141.48;58.55;;;;;;;17.33;100.00;102105.72;5073298;28;20074;-45
2023/05/08 09:29:21;;;;;;;132.38;55.97;;;;;;;17.81;100.00;102107.78;5069454;28;20020;-45
2023/05/08 09:31:49;;;;;;;138.02;58.58;;;;;;;17.92;100.00;102104.50;5071790;28;20064;-45
2023/05/08 09:34:29;;;;;;;137.82;57.08;;;;;;;17.81;100.00;102103.19;5069381;28;20035;-45
2023/05/08 09:36:55;;;;;;;115.43;53.90;;;;;;;17.92;100.00;102093.59;5064005;28;20068;-45
2023/05/08 09:39:24;;;;;;;104.28;53.35;;;;;;;17.47;100.00;102093.06;5051733;28;20479;-47
2023/05/08 09:42:00;;;;;;;87.63;47.55;;;;;;;17.85;100.00;102100.88;5050004;28;20028;-48
2023/05/08 09:44:25;;;;;;;95.70;48.83;;;;;;;17.47;100.00;102098.50;5067617;28;20102;-44
2023/05/08 09:46:51;;;;;;;94.57;47.65;;;;;;;17.88;100.00;102103.25;5070624;28;20444;-50
2023/05/08 09:49:17;;;;;;;78.10;43.58;;;;;;;18.45;100.00;102096.59;5072654;28;20437;-48
2023/05/08 09:51:52;;;;;;;77.53;42.42;;;;;;;18.64;100.00;102090.38;5069115;28;21215;-45
2023/05/08 09:54:18;;;;;;;78.90;42.28;;;;;;;18.38;100.00;102093.03;5064815;28;20386;-49
2023/05/08 09:56:43;;;;;;;78.90;43.65;;;;;;;18.22;100.00;102096.94;5062479;28;20104;-46
2023/05/08 09:59:23;;;;;;;84.80;43.10;;;;;;;18.34;100.00;102097.19;5050949;28;20127;-47
2023/05/08 10:01:48;;;;;;;85.10;43.95;;;;;;;18.18;100.00;102104.66;5054666;28;20090;-51
2023/05/08 10:04:14;;;;;;;85.30;43.85;;;;;;;18.05;100.00;102109.19;5072438;28;20020;-46
2023/05/08 10:06:40;;;;;;;80.70;42.45;;;;;;;17.87;100.00;102106.97;5070894;28;20036;-44
2023/05/08 10:09:14;;;;;;;81.97;41.17;;;;;;;18.27;100.00;102112.66;5069170;28;20033;-44
2023/05/08 10:11:41;;;;;;;86.85;45.58;;;;;;;17.90;100.00;102117.47;5062420;28;20098;-45
2023/05/08 10:14:07;;;;;;;89.68;44.60;;;;;;;17.70;100.00;102112.72;5071670;28;20467;-46
2023/05/08 10:16:41;;;;;;;79.88;39.65;;;;;;;17.91;100.00;102109.13;5059858;28;20032;-46
2023/05/08 10:19:17;;;;;;;72.75;35.92;;;;;;;17.74;100.00;102111.25;5060598;28;20090;-46
2023/05/08 10:21:50;;;;;;;46.13;23.75;;;;;;;18.25;100.00;102103.88;5071229;28;20032;-45
2023/05/08 10:24:20;;;;;;;38.28;20.75;;;;;;;18.91;100.00;102097.84;5071761;28;20032;-44
2023/05/08 10:26:57;;;;;;;39.00;20.98;;;;;;;19.47;100.00;102095.56;5052638;28;20416;-45
2023/05/08 10:29:37;;;;;;;48.80;23.20;;;;;;;19.46;100.00;102085.69;5058952;28;20021;-47
2023/05/08 10:32:04;;;;;;;41.85;22.48;;;;;;;19.19;100.00;102084.00;5034710;28;20079;-46
2023/05/08 10:34:31;;;;;;;39.15;20.05;;;;;;;19.63;100.00;102088.00;5055996;28;20032;-47
2023/05/08 10:36:57;;;;;;;36.83;20.60;;;;;;;20.15;100.00;102084.31;5057003;28;20041;-46
2023/05/08 10:39:22;;;;;;;36.45;19.50;;;;;;;21.07;100.00;102083.25;5071859;28;20031;-45
2023/05/08 10:41:49;;;;;;;30.00;18.27;;;;;;;21.36;100.00;102081.75;5062674;28;20428;-47
2023/05/08 10:44:14;;;;;;;34.05;18.52;;;;;;;21.12;100.00;102070.56;5061854;28;20036;-46
2023/05/08 10:47:03;;;;;;;36.33;21.05;;;;;;;21.04;100.00;102079.06;5050140;28;20029;-47
2023/05/08 10:50:02;;;;;;;33.88;20.20;;;;;;;21.65;100.00;102074.78;5051902;28;20399;-45
2023/05/08 10:52:37;;;;;;;33.65;21.63;;;;;;;20.93;100.00;102075.13;5072592;28;20078;-50
2023/05/08 10:55:16;;;;;;;29.13;19.10;;;;;;;20.67;100.00;102073.41;5065829;28;20040;-45
2023/05/08 10:58:05;;;;;;;32.58;19.20;;;;;;;19.75;100.00;102072.66;5050866;28;20048;-46
2023/05/08 11:00:51;;;;;;;33.47;18.98;;;;;;;20.37;100.00;102068.47;5053294;28;20151;-45